sensor_id;sensor_type;location;lat;lon;timestamp;P1;durP1;ratioP1;P2;durP2;ratioP2
59492;SDS011;45497;43.996;22.876;2023-08-06T00:01:26;3.00;;;1.33;;
59492;SDS011;45497;43.996;22.876;2023-08-06T00:03:51;3.30;;;1.17;;
59492;SDS011;45497;43.996;22.876;2023-08-06T00:06:17;3.03;;;1.20;;
59492;SDS011;45497;43.996;22.876;2023-08-06T00:08:42;4.17;;;1.30;;
59492;SDS011;45497;43.996;22.876;2023-08-06T00:11:07;3.73;;;1.70;;
59492;SDS011;45497;43.996;22.876;2023-08-06T00:13:33;3.23;;;1.57;;
59492;SDS011;45497;43.996;22.876;2023-08-06T00:16:10;4.43;;;1.77;;
59492;SDS011;45497;43.996;22.876;2023-08-06T00:18:38;4.78;;;1.80;;
59492;SDS011;45497;43.996;22.876;2023-08-06T00:21:04;3.70;;;1.60;;
59492;SDS011;45497;43.996;22.876;2023-08-06T00:23:29;3.85;;;1.42;;
59492;SDS011;45497;43.996;22.876;2023-08-06T00:25:55;3.60;;;1.50;;
59492;SDS011;45497;43.996;22.876;2023-08-06T00:28:20;5.93;;;1.77;;
59492;SDS011;45497;43.996;22.876;2023-08-06T00:30:46;4.03;;;1.97;;
59492;SDS011;45497;43.996;22.876;2023-08-06T00:33:11;2.93;;;1.27;;
59492;SDS011;45497;43.996;22.876;2023-08-06T00:35:37;2.70;;;1.50;;
59492;SDS011;45497;43.996;22.876;2023-08-06T00:38:02;6.27;;;1.70;;
59492;SDS011;45497;43.996;22.876;2023-08-06T00:40:29;5.32;;;1.40;;
59492;SDS011;45497;43.996;22.876;2023-08-06T00:42:55;3.83;;;1.30;;
59492;SDS011;45497;43.996;22.876;2023-08-06T00:45:21;3.00;;;1.33;;
59492;SDS011;45497;43.996;22.876;2023-08-06T00:47:47;4.03;;;1.42;;
59492;SDS011;45497;43.996;22.876;2023-08-06T00:50:13;3.95;;;1.70;;
59492;SDS011;45497;43.996;22.876;2023-08-06T00:52:39;3.87;;;1.33;;
59492;SDS011;45497;43.996;22.876;2023-08-06T00:55:05;4.03;;;1.40;;
59492;SDS011;45497;43.996;22.876;2023-08-06T00:57:32;3.63;;;1.42;;
59492;SDS011;45497;43.996;22.876;2023-08-06T00:59:57;2.80;;;1.53;;
59492;SDS011;45497;43.996;22.876;2023-08-06T01:02:23;4.10;;;1.90;;
59492;SDS011;45497;43.996;22.876;2023-08-06T01:04:48;3.03;;;1.40;;
59492;SDS011;45497;43.996;22.876;2023-08-06T01:10:02;3.37;;;1.80;;
59492;SDS011;45497;43.996;22.876;2023-08-06T01:15:53;2.58;;;1.40;;
59492;SDS011;45497;43.996;22.876;2023-08-06T01:18:22;3.22;;;1.50;;
59492;SDS011;45497;43.996;22.876;2023-08-06T01:20:48;2.85;;;1.30;;
59492;SDS011;45497;43.996;22.876;2023-08-06T01:23:15;2.95;;;1.60;;
59492;SDS011;45497;43.996;22.876;2023-08-06T01:28:53;3.63;;;1.52;;
59492;SDS011;45497;43.996;22.876;2023-08-06T01:31:26;3.50;;;1.45;;
59492;SDS011;45497;43.996;22.876;2023-08-06T01:33:58;3.13;;;1.40;;
59492;SDS011;45497;43.996;22.876;2023-08-06T01:36:24;2.65;;;1.35;;
59492;SDS011;45497;43.996;22.876;2023-08-06T01:38:53;2.25;;;1.33;;
59492;SDS011;45497;43.996;22.876;2023-08-06T01:41:19;3.83;;;1.30;;
59492;SDS011;45497;43.996;22.876;2023-08-06T01:43:44;2.80;;;1.57;;
59492;SDS011;45497;43.996;22.876;2023-08-06T01:46:10;2.80;;;1.10;;
59492;SDS011;45497;43.996;22.876;2023-08-06T01:48:35;5.15;;;1.38;;
59492;SDS011;45497;43.996;22.876;2023-08-06T01:51:03;2.10;;;1.20;;
59492;SDS011;45497;43.996;22.876;2023-08-06T01:53:29;3.43;;;1.40;;
59492;SDS011;45497;43.996;22.876;2023-08-06T01:55:55;2.65;;;1.10;;
59492;SDS011;45497;43.996;22.876;2023-08-06T01:58:20;2.30;;;1.20;;
59492;SDS011;45497;43.996;22.876;2023-08-06T02:00:46;2.57;;;1.30;;
59492;SDS011;45497;43.996;22.876;2023-08-06T02:03:11;2.53;;;1.10;;
59492;SDS011;45497;43.996;22.876;2023-08-06T02:05:37;2.50;;;1.10;;
59492;SDS011;45497;43.996;22.876;2023-08-06T02:08:02;3.95;;;1.20;;
59492;SDS011;45497;43.996;22.876;2023-08-06T02:10:28;3.47;;;1.20;;
59492;SDS011;45497;43.996;22.876;2023-08-06T02:12:53;2.27;;;1.30;;
59492;SDS011;45497;43.996;22.876;2023-08-06T02:15:19;3.30;;;1.25;;
59492;SDS011;45497;43.996;22.876;2023-08-06T02:17:44;3.03;;;1.43;;
59492;SDS011;45497;43.996;22.876;2023-08-06T02:20:10;2.57;;;1.30;;
59492;SDS011;45497;43.996;22.876;2023-08-06T02:22:35;3.13;;;1.25;;
59492;SDS011;45497;43.996;22.876;2023-08-06T02:25:01;2.23;;;1.10;;
59492;SDS011;45497;43.996;22.876;2023-08-06T02:27:26;2.33;;;1.00;;
59492;SDS011;45497;43.996;22.876;2023-08-06T02:29:52;1.87;;;1.17;;
59492;SDS011;45497;43.996;22.876;2023-08-06T02:32:17;2.93;;;1.30;;
59492;SDS011;45497;43.996;22.876;2023-08-06T02:34:43;2.75;;;1.30;;
59492;SDS011;45497;43.996;22.876;2023-08-06T02:37:08;5.27;;;1.13;;
59492;SDS011;45497;43.996;22.876;2023-08-06T02:39:34;2.97;;;1.20;;
59492;SDS011;45497;43.996;22.876;2023-08-06T02:42:00;2.70;;;1.40;;
59492;SDS011;45497;43.996;22.876;2023-08-06T02:44:29;4.30;;;1.30;;
59492;SDS011;45497;43.996;22.876;2023-08-06T02:46:54;2.20;;;1.00;;
59492;SDS011;45497;43.996;22.876;2023-08-06T02:49:20;3.73;;;1.20;;
59492;SDS011;45497;43.996;22.876;2023-08-06T02:51:45;2.60;;;1.20;;
59492;SDS011;45497;43.996;22.876;2023-08-06T02:54:11;3.13;;;1.20;;
59492;SDS011;45497;43.996;22.876;2023-08-06T02:56:36;3.00;;;1.23;;
59492;SDS011;45497;43.996;22.876;2023-08-06T02:59:02;2.92;;;1.35;;
59492;SDS011;45497;43.996;22.876;2023-08-06T03:01:27;2.20;;;1.40;;
59492;SDS011;45497;43.996;22.876;2023-08-06T03:03:53;5.35;;;1.20;;
59492;SDS011;45497;43.996;22.876;2023-08-06T03:06:19;2.50;;;1.30;;
59492;SDS011;45497;43.996;22.876;2023-08-06T03:08:44;2.80;;;1.10;;
59492;SDS011;45497;43.996;22.876;2023-08-06T03:11:10;2.73;;;1.20;;
59492;SDS011;45497;43.996;22.876;2023-08-06T03:13:35;2.35;;;1.10;;
59492;SDS011;45497;43.996;22.876;2023-08-06T03:16:01;2.80;;;1.30;;
59492;SDS011;45497;43.996;22.876;2023-08-06T03:18:26;4.50;;;1.30;;
59492;SDS011;45497;43.996;22.876;2023-08-06T03:20:52;2.75;;;1.33;;
59492;SDS011;45497;43.996;22.876;2023-08-06T03:23:18;2.67;;;1.30;;
59492;SDS011;45497;43.996;22.876;2023-08-06T03:25:44;2.73;;;1.20;;
59492;SDS011;45497;43.996;22.876;2023-08-06T03:28:09;2.17;;;1.30;;
59492;SDS011;45497;43.996;22.876;2023-08-06T03:30:35;2.22;;;1.13;;
59492;SDS011;45497;43.996;22.876;2023-08-06T03:33:01;12.40;;;2.17;;
59492;SDS011;45497;43.996;22.876;2023-08-06T03:35:26;3.05;;;1.70;;
59492;SDS011;45497;43.996;22.876;2023-08-06T03:37:52;4.40;;;1.97;;
59492;SDS011;45497;43.996;22.876;2023-08-06T03:40:17;3.43;;;1.47;;
59492;SDS011;45497;43.996;22.876;2023-08-06T03:42:43;3.65;;;1.80;;
59492;SDS011;45497;43.996;22.876;2023-08-06T03:45:08;3.13;;;1.53;;
59492;SDS011;45497;43.996;22.876;2023-08-06T03:47:34;2.65;;;1.40;;
59492;SDS011;45497;43.996;22.876;2023-08-06T03:50:00;3.53;;;1.50;;
59492;SDS011;45497;43.996;22.876;2023-08-06T03:52:25;2.43;;;1.33;;
59492;SDS011;45497;43.996;22.876;2023-08-06T03:54:51;2.50;;;1.63;;
59492;SDS011;45497;43.996;22.876;2023-08-06T03:57:16;5.00;;;1.83;;
59492;SDS011;45497;43.996;22.876;2023-08-06T03:59:42;3.28;;;1.50;;
59492;SDS011;45497;43.996;22.876;2023-08-06T04:02:07;2.77;;;1.60;;
59492;SDS011;45497;43.996;22.876;2023-08-06T04:04:33;2.22;;;1.50;;
59492;SDS011;45497;43.996;22.876;2023-08-06T04:06:58;2.60;;;1.60;;
59492;SDS011;45497;43.996;22.876;2023-08-06T04:09:24;4.23;;;1.77;;
59492;SDS011;45497;43.996;22.876;2023-08-06T04:11:49;3.75;;;1.70;;
59492;SDS011;45497;43.996;22.876;2023-08-06T04:14:15;5.37;;;1.90;;
59492;SDS011;45497;43.996;22.876;2023-08-06T04:16:40;5.43;;;1.80;;
59492;SDS011;45497;43.996;22.876;2023-08-06T04:19:05;3.33;;;2.30;;
59492;SDS011;45497;43.996;22.876;2023-08-06T04:21:31;3.40;;;2.33;;
59492;SDS011;45497;43.996;22.876;2023-08-06T04:23:56;2.67;;;1.93;;
59492;SDS011;45497;43.996;22.876;2023-08-06T04:26:22;3.55;;;1.90;;
59492;SDS011;45497;43.996;22.876;2023-08-06T04:28:47;3.20;;;2.23;;
59492;SDS011;45497;43.996;22.876;2023-08-06T04:31:14;3.55;;;1.80;;
59492;SDS011;45497;43.996;22.876;2023-08-06T04:33:39;2.83;;;1.73;;
59492;SDS011;45497;43.996;22.876;2023-08-06T04:36:05;4.17;;;2.27;;
59492;SDS011;45497;43.996;22.876;2023-08-06T04:38:31;3.47;;;1.90;;
59492;SDS011;45497;43.996;22.876;2023-08-06T04:40:56;3.37;;;1.73;;
59492;SDS011;45497;43.996;22.876;2023-08-06T04:43:22;3.40;;;2.40;;
59492;SDS011;45497;43.996;22.876;2023-08-06T04:45:49;4.47;;;2.13;;
59492;SDS011;45497;43.996;22.876;2023-08-06T04:48:15;3.20;;;1.92;;
59492;SDS011;45497;43.996;22.876;2023-08-06T04:50:44;10.57;;;7.23;;
59492;SDS011;45497;43.996;22.876;2023-08-06T04:53:10;4.17;;;2.00;;
59492;SDS011;45497;43.996;22.876;2023-08-06T04:55:36;5.57;;;3.67;;
59492;SDS011;45497;43.996;22.876;2023-08-06T04:58:01;4.30;;;2.10;;
59492;SDS011;45497;43.996;22.876;2023-08-06T05:00:27;4.17;;;2.80;;
59492;SDS011;45497;43.996;22.876;2023-08-06T05:02:52;3.20;;;2.20;;
59492;SDS011;45497;43.996;22.876;2023-08-06T05:05:18;3.40;;;2.63;;
59492;SDS011;45497;43.996;22.876;2023-08-06T05:07:45;3.00;;;2.33;;
59492;SDS011;45497;43.996;22.876;2023-08-06T05:10:13;4.10;;;2.10;;
59492;SDS011;45497;43.996;22.876;2023-08-06T05:12:38;3.85;;;2.30;;
59492;SDS011;45497;43.996;22.876;2023-08-06T05:15:04;3.40;;;2.07;;
59492;SDS011;45497;43.996;22.876;2023-08-06T05:17:30;3.47;;;2.17;;
59492;SDS011;45497;43.996;22.876;2023-08-06T05:19:55;2.47;;;2.07;;
59492;SDS011;45497;43.996;22.876;2023-08-06T05:22:21;3.47;;;2.60;;
59492;SDS011;45497;43.996;22.876;2023-08-06T05:24:46;3.77;;;1.83;;
59492;SDS011;45497;43.996;22.876;2023-08-06T05:27:12;5.07;;;2.30;;
59492;SDS011;45497;43.996;22.876;2023-08-06T05:29:37;2.65;;;1.88;;
59492;SDS011;45497;43.996;22.876;2023-08-06T05:32:03;3.53;;;1.83;;
59492;SDS011;45497;43.996;22.876;2023-08-06T05:34:28;3.23;;;1.90;;
59492;SDS011;45497;43.996;22.876;2023-08-06T05:36:54;4.50;;;2.20;;
59492;SDS011;45497;43.996;22.876;2023-08-06T05:39:19;4.10;;;2.13;;
59492;SDS011;45497;43.996;22.876;2023-08-06T05:41:45;4.00;;;2.60;;
59492;SDS011;45497;43.996;22.876;2023-08-06T05:44:10;5.93;;;3.63;;
59492;SDS011;45497;43.996;22.876;2023-08-06T05:46:36;7.20;;;3.80;;
59492;SDS011;45497;43.996;22.876;2023-08-06T05:49:01;8.80;;;4.28;;
59492;SDS011;45497;43.996;22.876;2023-08-06T05:51:27;4.63;;;2.20;;
59492;SDS011;45497;43.996;22.876;2023-08-06T05:53:53;6.45;;;2.42;;
59492;SDS011;45497;43.996;22.876;2023-08-06T05:56:19;4.40;;;2.38;;
59492;SDS011;45497;43.996;22.876;2023-08-06T05:58:44;4.17;;;2.10;;
59492;SDS011;45497;43.996;22.876;2023-08-06T06:01:11;4.53;;;2.55;;
59492;SDS011;45497;43.996;22.876;2023-08-06T06:03:37;3.10;;;1.60;;
59492;SDS011;45497;43.996;22.876;2023-08-06T06:06:02;6.30;;;1.70;;
59492;SDS011;45497;43.996;22.876;2023-08-06T06:08:28;3.40;;;1.60;;
59492;SDS011;45497;43.996;22.876;2023-08-06T06:10:54;4.05;;;1.80;;
59492;SDS011;45497;43.996;22.876;2023-08-06T06:13:19;4.93;;;1.80;;
59492;SDS011;45497;43.996;22.876;2023-08-06T06:15:46;2.88;;;1.63;;
59492;SDS011;45497;43.996;22.876;2023-08-06T06:18:12;2.75;;;1.55;;
59492;SDS011;45497;43.996;22.876;2023-08-06T06:20:38;2.13;;;1.30;;
59492;SDS011;45497;43.996;22.876;2023-08-06T06:23:03;5.60;;;1.30;;
59492;SDS011;45497;43.996;22.876;2023-08-06T06:25:29;3.23;;;1.60;;
59492;SDS011;45497;43.996;22.876;2023-08-06T06:27:54;4.87;;;1.53;;
59492;SDS011;45497;43.996;22.876;2023-08-06T06:30:20;2.13;;;1.40;;
59492;SDS011;45497;43.996;22.876;2023-08-06T06:32:45;1.97;;;1.40;;
59492;SDS011;45497;43.996;22.876;2023-08-06T06:35:10;2.33;;;1.30;;
59492;SDS011;45497;43.996;22.876;2023-08-06T06:37:37;2.85;;;1.15;;
59492;SDS011;45497;43.996;22.876;2023-08-06T06:40:03;2.10;;;1.13;;
59492;SDS011;45497;43.996;22.876;2023-08-06T06:42:29;3.00;;;1.20;;
59492;SDS011;45497;43.996;22.876;2023-08-06T06:44:54;2.13;;;1.10;;
59492;SDS011;45497;43.996;22.876;2023-08-06T06:47:20;1.95;;;1.25;;
59492;SDS011;45497;43.996;22.876;2023-08-06T06:49:45;1.53;;;1.10;;
59492;SDS011;45497;43.996;22.876;2023-08-06T06:52:11;1.87;;;1.30;;
59492;SDS011;45497;43.996;22.876;2023-08-06T06:54:36;2.88;;;1.30;;
59492;SDS011;45497;43.996;22.876;2023-08-06T06:57:02;2.43;;;1.07;;
59492;SDS011;45497;43.996;22.876;2023-08-06T06:59:28;4.55;;;1.27;;
59492;SDS011;45497;43.996;22.876;2023-08-06T07:01:53;1.80;;;1.20;;
59492;SDS011;45497;43.996;22.876;2023-08-06T07:04:18;3.23;;;1.10;;
59492;SDS011;45497;43.996;22.876;2023-08-06T07:06:44;3.63;;;1.38;;
59492;SDS011;45497;43.996;22.876;2023-08-06T07:09:09;2.20;;;1.20;;
59492;SDS011;45497;43.996;22.876;2023-08-06T07:11:35;3.77;;;1.20;;
59492;SDS011;45497;43.996;22.876;2023-08-06T07:14:00;3.10;;;1.00;;
59492;SDS011;45497;43.996;22.876;2023-08-06T07:16:26;2.67;;;1.48;;
59492;SDS011;45497;43.996;22.876;2023-08-06T07:18:53;1.38;;;1.10;;
59492;SDS011;45497;43.996;22.876;2023-08-06T07:21:19;2.08;;;1.17;;
59492;SDS011;45497;43.996;22.876;2023-08-06T07:23:45;3.58;;;1.23;;
59492;SDS011;45497;43.996;22.876;2023-08-06T07:26:10;2.00;;;1.30;;
59492;SDS011;45497;43.996;22.876;2023-08-06T07:28:36;3.93;;;1.10;;
59492;SDS011;45497;43.996;22.876;2023-08-06T07:31:02;1.83;;;1.20;;
59492;SDS011;45497;43.996;22.876;2023-08-06T07:33:28;3.22;;;1.60;;
59492;SDS011;45497;43.996;22.876;2023-08-06T07:35:54;1.95;;;1.27;;
59492;SDS011;45497;43.996;22.876;2023-08-06T07:38:19;1.80;;;1.20;;
59492;SDS011;45497;43.996;22.876;2023-08-06T07:40:45;5.80;;;1.40;;
59492;SDS011;45497;43.996;22.876;2023-08-06T07:43:11;1.93;;;1.10;;
59492;SDS011;45497;43.996;22.876;2023-08-06T07:45:36;1.53;;;1.10;;
59492;SDS011;45497;43.996;22.876;2023-08-06T07:48:02;1.65;;;1.10;;
59492;SDS011;45497;43.996;22.876;2023-08-06T07:50:28;2.45;;;1.15;;
59492;SDS011;45497;43.996;22.876;2023-08-06T07:52:54;1.83;;;1.17;;
59492;SDS011;45497;43.996;22.876;2023-08-06T07:55:19;2.95;;;0.90;;
59492;SDS011;45497;43.996;22.876;2023-08-06T07:57:45;1.30;;;1.00;;
59492;SDS011;45497;43.996;22.876;2023-08-06T08:00:10;1.93;;;1.17;;
59492;SDS011;45497;43.996;22.876;2023-08-06T08:02:36;1.77;;;0.95;;
59492;SDS011;45497;43.996;22.876;2023-08-06T08:05:02;1.27;;;1.03;;
59492;SDS011;45497;43.996;22.876;2023-08-06T08:07:27;4.00;;;1.13;;
59492;SDS011;45497;43.996;22.876;2023-08-06T08:09:55;3.20;;;1.30;;
59492;SDS011;45497;43.996;22.876;2023-08-06T08:12:21;1.63;;;0.95;;
59492;SDS011;45497;43.996;22.876;2023-08-06T08:14:46;2.17;;;1.10;;
59492;SDS011;45497;43.996;22.876;2023-08-06T08:17:12;1.67;;;1.20;;
59492;SDS011;45497;43.996;22.876;2023-08-06T08:19:37;3.57;;;1.30;;
59492;SDS011;45497;43.996;22.876;2023-08-06T08:22:03;2.67;;;1.33;;
59492;SDS011;45497;43.996;22.876;2023-08-06T08:24:28;2.10;;;1.45;;
59492;SDS011;45497;43.996;22.876;2023-08-06T08:26:55;3.27;;;1.30;;
59492;SDS011;45497;43.996;22.876;2023-08-06T08:29:21;3.83;;;1.10;;
59492;SDS011;45497;43.996;22.876;2023-08-06T08:31:49;1.60;;;1.25;;
59492;SDS011;45497;43.996;22.876;2023-08-06T08:34:18;1.77;;;1.20;;
59492;SDS011;45497;43.996;22.876;2023-08-06T08:36:43;2.47;;;1.17;;
59492;SDS011;45497;43.996;22.876;2023-08-06T08:39:12;2.85;;;1.17;;
59492;SDS011;45497;43.996;22.876;2023-08-06T08:41:38;2.05;;;1.30;;
59492;SDS011;45497;43.996;22.876;2023-08-06T08:44:08;2.95;;;1.60;;
59492;SDS011;45497;43.996;22.876;2023-08-06T08:46:38;2.50;;;1.45;;
59492;SDS011;45497;43.996;22.876;2023-08-06T08:49:05;3.15;;;1.30;;
59492;SDS011;45497;43.996;22.876;2023-08-06T08:51:32;2.97;;;1.40;;
59492;SDS011;45497;43.996;22.876;2023-08-06T08:53:59;1.48;;;1.08;;
59492;SDS011;45497;43.996;22.876;2023-08-06T08:56:27;1.58;;;1.25;;
59492;SDS011;45497;43.996;22.876;2023-08-06T08:58:53;2.40;;;1.80;;
59492;SDS011;45497;43.996;22.876;2023-08-06T09:01:20;2.00;;;1.40;;
59492;SDS011;45497;43.996;22.876;2023-08-06T09:03:47;1.40;;;1.20;;
59492;SDS011;45497;43.996;22.876;2023-08-06T09:06:13;1.30;;;1.20;;
59492;SDS011;45497;43.996;22.876;2023-08-06T09:08:47;2.10;;;1.50;;
59492;SDS011;45497;43.996;22.876;2023-08-06T09:11:17;2.15;;;1.58;;
59492;SDS011;45497;43.996;22.876;2023-08-06T09:13:45;2.63;;;1.70;;
59492;SDS011;45497;43.996;22.876;2023-08-06T09:16:12;2.60;;;1.30;;
59492;SDS011;45497;43.996;22.876;2023-08-06T09:18:38;3.08;;;1.80;;
59492;SDS011;45497;43.996;22.876;2023-08-06T09:21:04;2.90;;;1.45;;
59492;SDS011;45497;43.996;22.876;2023-08-06T09:23:30;2.03;;;1.60;;
59492;SDS011;45497;43.996;22.876;2023-08-06T09:25:57;2.63;;;1.60;;
59492;SDS011;45497;43.996;22.876;2023-08-06T09:28:22;3.75;;;1.92;;
59492;SDS011;45497;43.996;22.876;2023-08-06T09:30:49;1.85;;;1.70;;
59492;SDS011;45497;43.996;22.876;2023-08-06T09:33:18;2.45;;;1.90;;
59492;SDS011;45497;43.996;22.876;2023-08-06T09:35:45;1.43;;;1.27;;
59492;SDS011;45497;43.996;22.876;2023-08-06T09:38:12;3.23;;;2.93;;
59492;SDS011;45497;43.996;22.876;2023-08-06T09:40:37;2.90;;;2.17;;
59492;SDS011;45497;43.996;22.876;2023-08-06T09:43:04;2.83;;;2.50;;
59492;SDS011;45497;43.996;22.876;2023-08-06T09:45:33;2.38;;;2.10;;
59492;SDS011;45497;43.996;22.876;2023-08-06T09:48:04;2.85;;;1.95;;
59492;SDS011;45497;43.996;22.876;2023-08-06T09:50:31;2.03;;;1.83;;
59492;SDS011;45497;43.996;22.876;2023-08-06T09:52:58;3.80;;;2.17;;
59492;SDS011;45497;43.996;22.876;2023-08-06T09:55:25;2.10;;;1.90;;
59492;SDS011;45497;43.996;22.876;2023-08-06T09:57:52;2.28;;;2.08;;
59492;SDS011;45497;43.996;22.876;2023-08-06T10:00:17;2.47;;;1.90;;
59492;SDS011;45497;43.996;22.876;2023-08-06T10:02:43;5.38;;;2.10;;
59492;SDS011;45497;43.996;22.876;2023-08-06T10:05:10;2.47;;;1.98;;
59492;SDS011;45497;43.996;22.876;2023-08-06T10:07:36;2.40;;;2.20;;
59492;SDS011;45497;43.996;22.876;2023-08-06T10:10:05;2.40;;;2.20;;
59492;SDS011;45497;43.996;22.876;2023-08-06T10:12:33;2.60;;;2.40;;
59492;SDS011;45497;43.996;22.876;2023-08-06T10:15:01;3.20;;;2.60;;
59492;SDS011;45497;43.996;22.876;2023-08-06T10:17:31;3.47;;;2.60;;
59492;SDS011;45497;43.996;22.876;2023-08-06T10:19:59;3.30;;;3.00;;
59492;SDS011;45497;43.996;22.876;2023-08-06T10:22:25;3.88;;;2.78;;
59492;SDS011;45497;43.996;22.876;2023-08-06T10:24:53;3.60;;;3.30;;
59492;SDS011;45497;43.996;22.876;2023-08-06T10:27:27;3.05;;;2.70;;
59492;SDS011;45497;43.996;22.876;2023-08-06T10:29:56;2.92;;;2.72;;
59492;SDS011;45497;43.996;22.876;2023-08-06T10:32:48;3.65;;;3.03;;
59492;SDS011;45497;43.996;22.876;2023-08-06T10:35:31;4.32;;;3.17;;
59492;SDS011;45497;43.996;22.876;2023-08-06T10:40:35;3.65;;;3.25;;
59492;SDS011;45497;43.996;22.876;2023-08-06T10:43:02;5.35;;;3.90;;
59492;SDS011;45497;43.996;22.876;2023-08-06T10:45:29;4.53;;;4.10;;
59492;SDS011;45497;43.996;22.876;2023-08-06T10:47:56;4.37;;;3.80;;
59492;SDS011;45497;43.996;22.876;2023-08-06T10:50:22;4.10;;;3.70;;
59492;SDS011;45497;43.996;22.876;2023-08-06T10:52:48;4.32;;;3.92;;
59492;SDS011;45497;43.996;22.876;2023-08-06T10:55:14;4.50;;;4.10;;
59492;SDS011;45497;43.996;22.876;2023-08-06T10:57:47;4.50;;;4.10;;
59492;SDS011;45497;43.996;22.876;2023-08-06T11:00:12;5.73;;;3.83;;
59492;SDS011;45497;43.996;22.876;2023-08-06T11:02:39;4.97;;;4.30;;
59492;SDS011;45497;43.996;22.876;2023-08-06T11:05:07;6.43;;;4.73;;
59492;SDS011;45497;43.996;22.876;2023-08-06T11:07:34;5.07;;;4.57;;
59492;SDS011;45497;43.996;22.876;2023-08-06T11:10:04;4.22;;;3.92;;
59492;SDS011;45497;43.996;22.876;2023-08-06T11:12:31;4.20;;;3.80;;
59492;SDS011;45497;43.996;22.876;2023-08-06T11:14:57;4.82;;;4.00;;
59492;SDS011;45497;43.996;22.876;2023-08-06T11:17:23;4.60;;;4.13;;
59492;SDS011;45497;43.996;22.876;2023-08-06T11:19:49;3.65;;;3.35;;
59492;SDS011;45497;43.996;22.876;2023-08-06T11:22:15;4.30;;;3.90;;
59492;SDS011;45497;43.996;22.876;2023-08-06T11:25:00;4.18;;;3.75;;
59492;SDS011;45497;43.996;22.876;2023-08-06T11:27:26;4.17;;;3.70;;
59492;SDS011;45497;43.996;22.876;2023-08-06T11:29:54;4.10;;;3.70;;
59492;SDS011;45497;43.996;22.876;2023-08-06T11:32:19;5.30;;;3.60;;
59492;SDS011;45497;43.996;22.876;2023-08-06T11:34:45;4.25;;;3.70;;
59492;SDS011;45497;43.996;22.876;2023-08-06T11:37:10;3.37;;;2.87;;
59492;SDS011;45497;43.996;22.876;2023-08-06T11:39:36;4.13;;;3.50;;
59492;SDS011;45497;43.996;22.876;2023-08-06T11:42:03;4.97;;;3.70;;
59492;SDS011;45497;43.996;22.876;2023-08-06T11:44:32;4.43;;;4.00;;
59492;SDS011;45497;43.996;22.876;2023-08-06T11:47:02;4.57;;;4.10;;
59492;SDS011;45497;43.996;22.876;2023-08-06T11:52:18;4.95;;;4.47;;
59492;SDS011;45497;43.996;22.876;2023-08-06T11:57:35;5.05;;;4.60;;
59492;SDS011;45497;43.996;22.876;2023-08-06T12:00:11;5.43;;;4.93;;
59492;SDS011;45497;43.996;22.876;2023-08-06T12:02:41;4.35;;;3.95;;
59492;SDS011;45497;43.996;22.876;2023-08-06T12:07:40;4.70;;;4.00;;
59492;SDS011;45497;43.996;22.876;2023-08-06T12:10:09;6.32;;;4.45;;
59492;SDS011;45497;43.996;22.876;2023-08-06T12:12:35;4.93;;;4.53;;
59492;SDS011;45497;43.996;22.876;2023-08-06T12:15:02;5.60;;;5.10;;
59492;SDS011;45497;43.996;22.876;2023-08-06T12:17:28;5.65;;;5.10;;
59492;SDS011;45497;43.996;22.876;2023-08-06T12:19:53;4.90;;;4.50;;
59492;SDS011;45497;43.996;22.876;2023-08-06T12:22:19;5.33;;;4.83;;
59492;SDS011;45497;43.996;22.876;2023-08-06T12:24:45;5.40;;;4.90;;
59492;SDS011;45497;43.996;22.876;2023-08-06T12:27:11;5.45;;;4.95;;
59492;SDS011;45497;43.996;22.876;2023-08-06T12:29:40;5.73;;;4.70;;
59492;SDS011;45497;43.996;22.876;2023-08-06T12:32:07;5.32;;;4.82;;
59492;SDS011;45497;43.996;22.876;2023-08-06T12:34:33;5.63;;;5.13;;
59492;SDS011;45497;43.996;22.876;2023-08-06T12:36:59;5.07;;;4.68;;
59492;SDS011;45497;43.996;22.876;2023-08-06T12:39:24;6.05;;;5.55;;
59492;SDS011;45497;43.996;22.876;2023-08-06T12:41:49;4.83;;;4.43;;
59492;SDS011;45497;43.996;22.876;2023-08-06T12:44:15;4.27;;;3.97;;
59492;SDS011;45497;43.996;22.876;2023-08-06T12:46:40;4.80;;;3.60;;
59492;SDS011;45497;43.996;22.876;2023-08-06T12:49:06;4.30;;;3.90;;
59492;SDS011;45497;43.996;22.876;2023-08-06T12:51:31;4.03;;;3.73;;
59492;SDS011;45497;43.996;22.876;2023-08-06T12:53:58;4.80;;;4.40;;
59492;SDS011;45497;43.996;22.876;2023-08-06T12:56:24;4.68;;;4.28;;
59492;SDS011;45497;43.996;22.876;2023-08-06T12:58:50;5.97;;;4.40;;
59492;SDS011;45497;43.996;22.876;2023-08-06T13:01:15;5.07;;;4.57;;
59492;SDS011;45497;43.996;22.876;2023-08-06T13:03:40;5.07;;;4.60;;
59492;SDS011;45497;43.996;22.876;2023-08-06T13:06:06;5.73;;;5.20;;
59492;SDS011;45497;43.996;22.876;2023-08-06T13:08:32;5.30;;;4.80;;
59492;SDS011;45497;43.996;22.876;2023-08-06T13:10:58;4.70;;;4.30;;
59492;SDS011;45497;43.996;22.876;2023-08-06T13:13:23;4.95;;;4.50;;
59492;SDS011;45497;43.996;22.876;2023-08-06T13:15:51;4.90;;;4.50;;
59492;SDS011;45497;43.996;22.876;2023-08-06T13:18:17;5.25;;;4.75;;
59492;SDS011;45497;43.996;22.876;2023-08-06T13:20:43;5.13;;;4.72;;
59492;SDS011;45497;43.996;22.876;2023-08-06T13:23:08;4.93;;;4.53;;
59492;SDS011;45497;43.996;22.876;2023-08-06T13:25:34;5.57;;;5.07;;
59492;SDS011;45497;43.996;22.876;2023-08-06T13:28:02;4.95;;;4.55;;
59492;SDS011;45497;43.996;22.876;2023-08-06T13:30:28;5.43;;;5.03;;
59492;SDS011;45497;43.996;22.876;2023-08-06T13:32:54;5.27;;;4.87;;
59492;SDS011;45497;43.996;22.876;2023-08-06T13:35:21;5.10;;;4.63;;
59492;SDS011;45497;43.996;22.876;2023-08-06T13:37:47;5.57;;;4.97;;
59492;SDS011;45497;43.996;22.876;2023-08-06T13:40:13;5.80;;;5.30;;
59492;SDS011;45497;43.996;22.876;2023-08-06T13:42:39;4.90;;;4.50;;
59492;SDS011;45497;43.996;22.876;2023-08-06T13:45:05;5.90;;;5.40;;
59492;SDS011;45497;43.996;22.876;2023-08-06T13:47:32;5.82;;;5.30;;
59492;SDS011;45497;43.996;22.876;2023-08-06T13:49:57;5.77;;;5.27;;
59492;SDS011;45497;43.996;22.876;2023-08-06T13:52:22;5.57;;;5.07;;
59492;SDS011;45497;43.996;22.876;2023-08-06T13:54:50;5.95;;;5.40;;
59492;SDS011;45497;43.996;22.876;2023-08-06T13:57:15;5.57;;;5.07;;
59492;SDS011;45497;43.996;22.876;2023-08-06T13:59:42;5.97;;;5.47;;
59492;SDS011;45497;43.996;22.876;2023-08-06T14:02:08;6.38;;;5.80;;
59492;SDS011;45497;43.996;22.876;2023-08-06T14:04:34;6.20;;;5.70;;
59492;SDS011;45497;43.996;22.876;2023-08-06T14:07:00;6.10;;;5.60;;
59492;SDS011;45497;43.996;22.876;2023-08-06T14:09:25;8.32;;;6.30;;
59492;SDS011;45497;43.996;22.876;2023-08-06T14:11:51;6.80;;;6.20;;
59492;SDS011;45497;43.996;22.876;2023-08-06T14:14:16;6.90;;;5.87;;
59492;SDS011;45497;43.996;22.876;2023-08-06T14:16:42;6.87;;;6.27;;
59492;SDS011;45497;43.996;22.876;2023-08-06T14:19:07;7.33;;;6.73;;
59492;SDS011;45497;43.996;22.876;2023-08-06T14:21:33;6.90;;;6.30;;
59492;SDS011;45497;43.996;22.876;2023-08-06T14:23:58;5.85;;;5.35;;
59492;SDS011;45497;43.996;22.876;2023-08-06T14:26:24;8.07;;;7.35;;
59492;SDS011;45497;43.996;22.876;2023-08-06T14:28:49;9.07;;;8.18;;
59492;SDS011;45497;43.996;22.876;2023-08-06T14:31:19;9.32;;;8.38;;
59492;SDS011;45497;43.996;22.876;2023-08-06T14:33:45;8.07;;;7.25;;
59492;SDS011;45497;43.996;22.876;2023-08-06T14:36:10;10.43;;;9.30;;
59492;SDS011;45497;43.996;22.876;2023-08-06T14:38:35;9.27;;;8.47;;
59492;SDS011;45497;43.996;22.876;2023-08-06T14:41:01;10.20;;;9.30;;
59492;SDS011;45497;43.996;22.876;2023-08-06T14:43:26;10.17;;;9.23;;
59492;SDS011;45497;43.996;22.876;2023-08-06T14:45:52;10.32;;;9.43;;
59492;SDS011;45497;43.996;22.876;2023-08-06T14:48:18;11.00;;;10.00;;